createdAt,value
2017-08-31T00:00:33.987Z,55.83
2017-08-31T00:03:02.112Z,61.83
2017-08-31T00:05:30.212Z,56.50
2017-08-31T00:07:58.326Z,55.10
2017-08-31T00:10:26.595Z,59.60
2017-08-31T00:12:54.702Z,62.97
2017-08-31T00:15:23.772Z,61.07
2017-08-31T00:17:52.825Z,63.33
2017-08-31T00:20:20.931Z,62.17
2017-08-31T00:22:49.079Z,64.70
2017-08-31T00:25:17.395Z,55.87
2017-08-31T00:27:45.732Z,53.80
2017-08-31T00:30:14.051Z,47.20
2017-08-31T00:32:44.143Z,51.03
2017-08-31T00:35:12.316Z,51.33
2017-08-31T00:37:40.419Z,49.20
2017-08-31T00:40:10.696Z,54.80
2017-08-31T00:42:39.038Z,50.67
2017-08-31T00:45:07.329Z,49.80
2017-08-31T00:47:35.437Z,50.03
2017-08-31T00:50:03.532Z,48.67
2017-08-31T00:52:31.871Z,46.20
2017-08-31T00:55:00.190Z,47.87
2017-08-31T00:57:28.533Z,39.50
2017-08-31T00:59:56.646Z,39.80
2017-08-31T01:02:24.808Z,38.87
2017-08-31T01:04:53.228Z,31.60
2017-08-31T01:07:21.336Z,34.77
2017-08-31T01:09:49.419Z,21.90
2017-08-31T01:12:18.224Z,16.00
2017-08-31T01:14:46.547Z,16.10
2017-08-31T01:17:15.299Z,17.00
2017-08-31T01:19:43.700Z,16.53
2017-08-31T01:22:12.028Z,13.53
2017-08-31T01:24:41.160Z,12.27
2017-08-31T01:27:09.608Z,13.07
2017-08-31T01:29:37.748Z,16.40
2017-08-31T01:32:06.131Z,24.43
2017-08-31T01:34:34.553Z,15.80
2017-08-31T01:37:03.348Z,19.53
2017-08-31T01:39:31.947Z,26.50
2017-08-31T01:42:00.353Z,24.47
2017-08-31T01:44:29.498Z,26.73
2017-08-31T01:46:57.823Z,24.27
2017-08-31T01:49:25.964Z,24.03
2017-08-31T01:51:54.327Z,22.50
2017-08-31T01:54:22.655Z,25.93
2017-08-31T01:56:50.781Z,24.17
2017-08-31T01:59:19.923Z,25.63
2017-08-31T02:01:48.075Z,24.80
2017-08-31T02:04:16.425Z,22.83
2017-08-31T02:06:44.715Z,27.27
2017-08-31T02:09:12.816Z,24.90
2017-08-31T02:11:41.725Z,25.53
2017-08-31T02:14:09.842Z,25.80
2017-08-31T02:16:38.852Z,25.03
2017-08-31T02:19:07.195Z,24.60
2017-08-31T02:21:35.298Z,21.63
2017-08-31T02:24:03.401Z,21.80
2017-08-31T02:26:31.752Z,24.30
2017-08-31T02:29:00.917Z,29.13
2017-08-31T02:31:29.023Z,26.40
2017-08-31T02:33:57.193Z,26.70
2017-08-31T02:36:25.304Z,23.70
2017-08-31T02:38:53.631Z,27.50
2017-08-31T02:41:22.087Z,30.83
2017-08-31T02:43:50.269Z,26.37
2017-08-31T02:46:18.620Z,28.30
2017-08-31T02:48:46.732Z,27.20
2017-08-31T02:51:14.976Z,31.23
2017-08-31T02:53:43.754Z,29.57
2017-08-31T02:56:11.836Z,31.50
2017-08-31T02:58:41.025Z,26.83
2017-08-31T03:01:09.347Z,30.60
2017-08-31T03:03:37.422Z,33.57
2017-08-31T03:06:05.556Z,27.37
2017-08-31T03:08:33.879Z,35.37
2017-08-31T03:11:02.170Z,42.47
2017-08-31T03:13:30.282Z,60.50
2017-08-31T03:15:58.628Z,73.23
2017-08-31T03:18:26.810Z,73.73
2017-08-31T03:20:55.139Z,75.17
2017-08-31T03:23:23.441Z,74.63
2017-08-31T03:25:52.329Z,70.10
2017-08-31T03:28:20.402Z,82.17
2017-08-31T03:30:48.757Z,66.83
2017-08-31T03:33:17.100Z,65.10
2017-08-31T03:35:46.095Z,64.63
2017-08-31T03:38:14.371Z,61.83
2017-08-31T03:40:42.455Z,67.93
2017-08-31T03:43:11.712Z,62.17
2017-08-31T03:45:40.031Z,60.27
2017-08-31T03:48:08.391Z,47.73
2017-08-31T03:50:36.472Z,51.50
2017-08-31T03:53:04.618Z,49.43
2017-08-31T03:55:32.735Z,45.10
2017-08-31T03:58:01.074Z,42.50
2017-08-31T04:00:29.268Z,38.93
2017-08-31T04:02:57.607Z,42.43
2017-08-31T04:05:25.698Z,42.10
2017-08-31T04:07:54.759Z,40.57
2017-08-31T04:10:23.604Z,33.00
2017-08-31T04:12:51.947Z,41.07
2017-08-31T04:15:20.107Z,34.43
2017-08-31T04:17:48.484Z,29.07
2017-08-31T04:20:16.693Z,27.70
2017-08-31T04:22:44.775Z,19.63
2017-08-31T04:25:12.879Z,19.00
2017-08-31T04:27:41.243Z,20.10
2017-08-31T04:30:10.291Z,20.97
2017-08-31T04:32:38.379Z,24.37
2017-08-31T04:35:06.498Z,24.87
2017-08-31T04:37:34.847Z,28.37
2017-08-31T04:40:03.600Z,26.20
2017-08-31T04:42:32.072Z,28.23
2017-08-31T04:45:00.162Z,28.63
2017-08-31T04:47:28.270Z,26.50
2017-08-31T04:49:57.046Z,26.23
2017-08-31T04:52:25.143Z,27.27
2017-08-31T04:54:53.252Z,29.10
2017-08-31T04:57:21.350Z,28.57
2017-08-31T04:59:49.435Z,29.03
2017-08-31T05:02:17.534Z,26.43
2017-08-31T05:04:45.643Z,30.30
2017-08-31T05:07:13.756Z,28.43
2017-08-31T05:09:41.855Z,29.80
2017-08-31T05:12:10.162Z,27.23
2017-08-31T05:14:38.264Z,26.87
2017-08-31T05:17:06.362Z,23.27
2017-08-31T05:19:34.474Z,18.47
2017-08-31T05:22:02.600Z,13.43
2017-08-31T05:24:30.779Z,12.87
2017-08-31T05:26:58.903Z,11.73
2017-08-31T05:29:26.987Z,12.73
2017-08-31T05:31:55.263Z,11.27
2017-08-31T05:34:23.375Z,10.33
2017-08-31T05:36:52.388Z,10.53
2017-08-31T05:39:20.452Z,9.67
2017-08-31T05:41:48.535Z,7.70
2017-08-31T05:44:16.648Z,8.70
2017-08-31T05:46:45.534Z,9.10
2017-08-31T05:49:15.076Z,12.50
2017-08-31T05:51:43.195Z,8.40
2017-08-31T05:54:11.313Z,10.00
2017-08-31T05:56:40.314Z,12.83
2017-08-31T05:59:08.447Z,8.50
2017-08-31T06:01:36.788Z,9.13
2017-08-31T06:04:04.887Z,7.70
2017-08-31T06:06:33.015Z,8.13
2017-08-31T06:09:01.917Z,7.47
2017-08-31T06:11:30.026Z,7.87
2017-08-31T06:13:58.120Z,8.90
2017-08-31T06:16:27.123Z,7.90
2017-08-31T06:18:55.219Z,7.77
2017-08-31T06:21:23.598Z,11.40
2017-08-31T06:23:51.695Z,9.07
2017-08-31T06:26:19.790Z,8.60
2017-08-31T06:28:47.900Z,7.40
2017-08-31T06:31:15.974Z,8.57
2017-08-31T06:33:44.074Z,4.93
2017-08-31T06:36:12.158Z,5.80
2017-08-31T06:38:40.511Z,4.13
2017-08-31T06:41:08.874Z,4.20
2017-08-31T06:43:37.151Z,4.27
2017-08-31T06:46:05.244Z,4.00
2017-08-31T06:48:33.372Z,3.77
2017-08-31T06:51:01.636Z,5.50
2017-08-31T06:53:29.998Z,2.90
2017-08-31T06:55:58.815Z,3.20
2017-08-31T06:58:26.987Z,4.53
2017-08-31T07:00:55.088Z,5.10
2017-08-31T07:03:23.577Z,5.20
2017-08-31T07:05:51.956Z,6.97
2017-08-31T07:08:20.028Z,8.23
2017-08-31T07:10:48.154Z,11.30
2017-08-31T07:13:16.263Z,10.37
2017-08-31T07:15:44.376Z,11.17
2017-08-31T07:18:12.483Z,15.53
2017-08-31T07:20:40.828Z,11.43
2017-08-31T07:23:08.927Z,12.83
2017-08-31T07:25:37.000Z,16.00
2017-08-31T07:28:05.284Z,11.90
2017-08-31T07:30:33.587Z,15.60
2017-08-31T07:33:01.711Z,16.33
2017-08-31T07:35:30.492Z,14.97
2017-08-31T07:37:59.334Z,12.87
2017-08-31T07:40:27.499Z,15.83
2017-08-31T07:42:55.811Z,17.23
2017-08-31T07:45:23.976Z,17.57
2017-08-31T07:47:53.209Z,17.40
2017-08-31T07:50:21.524Z,18.03
2017-08-31T07:52:49.620Z,15.37
2017-08-31T07:55:17.885Z,15.60
2017-08-31T07:57:46.779Z,14.80
2017-08-31T08:00:15.565Z,17.73
2017-08-31T08:02:44.020Z,16.60
2017-08-31T08:05:12.168Z,15.00
2017-08-31T08:07:41.312Z,17.30
2017-08-31T08:10:09.608Z,16.67
2017-08-31T08:12:37.728Z,15.43
2017-08-31T08:15:06.488Z,15.90
2017-08-31T08:17:34.593Z,21.13
2017-08-31T08:20:02.772Z,23.77
2017-08-31T08:22:31.015Z,20.00
2017-08-31T08:24:59.340Z,21.80
2017-08-31T08:27:27.560Z,20.00
2017-08-31T08:29:55.779Z,18.40
2017-08-31T08:32:24.087Z,18.60
2017-08-31T08:34:52.695Z,23.87
2017-08-31T08:37:20.937Z,19.30
2017-08-31T08:39:49.352Z,19.90
2017-08-31T08:42:17.752Z,21.23
2017-08-31T08:44:45.871Z,21.73
2017-08-31T08:47:13.995Z,19.70
2017-08-31T08:49:43.047Z,18.40
2017-08-31T08:52:11.143Z,20.90
2017-08-31T08:54:40.067Z,21.83
2017-08-31T08:57:08.178Z,23.67
2017-08-31T08:59:36.538Z,20.40
2017-08-31T09:02:04.620Z,21.03
2017-08-31T09:04:32.962Z,21.30
2017-08-31T09:07:01.071Z,23.07
2017-08-31T09:09:29.488Z,16.20
2017-08-31T09:11:57.818Z,17.30
2017-08-31T09:14:25.920Z,16.70
2017-08-31T09:16:54.010Z,16.20
2017-08-31T09:19:24.022Z,16.70
2017-08-31T09:21:52.462Z,17.83
2017-08-31T09:24:20.590Z,18.20
2017-08-31T09:26:48.847Z,17.20
2017-08-31T09:29:16.963Z,14.90
2017-08-31T09:31:45.035Z,20.33
2017-08-31T09:34:13.360Z,18.30
2017-08-31T09:36:41.475Z,8.70
2017-08-31T09:39:09.619Z,10.60
2017-08-31T09:41:37.893Z,8.80
2017-08-31T09:44:06.791Z,7.87
2017-08-31T09:46:35.878Z,8.40
2017-08-31T09:49:04.907Z,7.33
2017-08-31T09:51:33.026Z,6.50
2017-08-31T09:54:01.140Z,6.73
2017-08-31T09:56:29.949Z,6.40
2017-08-31T09:58:58.332Z,8.23
2017-08-31T10:01:26.437Z,6.60
2017-08-31T10:03:54.557Z,11.47
2017-08-31T10:06:22.635Z,6.43
2017-08-31T10:08:51.667Z,4.50
2017-08-31T10:11:19.771Z,4.53
2017-08-31T10:13:47.892Z,5.03
2017-08-31T10:16:16.103Z,4.20
2017-08-31T10:18:44.172Z,3.97
2017-08-31T10:21:13.297Z,4.93
2017-08-31T10:23:41.485Z,6.77
2017-08-31T10:26:09.818Z,5.23
2017-08-31T10:28:37.910Z,5.70
2017-08-31T10:31:06.015Z,5.87
2017-08-31T10:33:34.131Z,4.63
2017-08-31T10:36:02.253Z,6.90
2017-08-31T10:38:30.339Z,4.97
2017-08-31T10:40:58.445Z,7.20
2017-08-31T10:43:26.539Z,4.77
2017-08-31T10:45:54.655Z,5.17
2017-08-31T10:48:22.764Z,4.50
2017-08-31T10:50:50.856Z,4.67
2017-08-31T10:53:19.883Z,6.33
2017-08-31T10:55:48.900Z,4.10
2017-08-31T10:58:17.003Z,3.10
2017-08-31T11:00:45.128Z,4.23
2017-08-31T11:03:14.073Z,3.60
2017-08-31T11:05:43.091Z,4.30
2017-08-31T11:08:11.210Z,3.13
2017-08-31T11:10:39.444Z,5.40
2017-08-31T11:13:07.516Z,5.70
2017-08-31T11:15:35.629Z,3.43
2017-08-31T11:18:03.724Z,4.40
2017-08-31T11:20:31.799Z,5.90
2017-08-31T11:23:00.007Z,2.90
2017-08-31T11:25:28.359Z,3.50
2017-08-31T11:27:56.605Z,4.80
2017-08-31T11:30:24.717Z,3.93
2017-08-31T11:32:52.781Z,5.70
2017-08-31T11:35:21.146Z,5.77
2017-08-31T11:37:49.199Z,3.50
2017-08-31T11:40:18.479Z,6.73
2017-08-31T11:42:46.579Z,6.27
2017-08-31T11:45:14.953Z,5.10
2017-08-31T11:47:44.043Z,4.70
2017-08-31T11:50:13.075Z,8.67
2017-08-31T11:52:41.388Z,6.43
2017-08-31T11:55:09.521Z,4.93
2017-08-31T11:57:37.620Z,6.67
2017-08-31T12:00:06.929Z,6.67
2017-08-31T12:02:35.463Z,5.33
2017-08-31T12:05:04.336Z,12.00
2017-08-31T12:07:32.754Z,7.17
2017-08-31T12:10:01.765Z,8.10
2017-08-31T12:12:30.051Z,5.40
2017-08-31T12:14:58.136Z,13.23
2017-08-31T12:17:26.582Z,5.93
2017-08-31T12:19:54.929Z,8.27
2017-08-31T12:22:24.207Z,6.67
2017-08-31T12:24:52.313Z,6.00
2017-08-31T12:27:20.412Z,5.47
2017-08-31T12:29:48.513Z,7.50
2017-08-31T12:32:16.834Z,9.60
2017-08-31T12:34:45.112Z,4.70
2017-08-31T12:37:13.213Z,5.93
2017-08-31T12:39:41.297Z,9.23
2017-08-31T12:42:09.394Z,6.10
2017-08-31T12:44:37.493Z,6.00
2017-08-31T12:47:05.592Z,7.40
2017-08-31T12:49:33.708Z,6.30
2017-08-31T12:52:02.004Z,7.37
2017-08-31T12:54:31.045Z,8.60
2017-08-31T12:57:00.065Z,7.03
2017-08-31T12:59:28.297Z,8.40
2017-08-31T13:01:56.483Z,9.17
2017-08-31T13:04:25.366Z,6.37
2017-08-31T13:06:53.624Z,8.57
2017-08-31T13:09:21.719Z,8.50
2017-08-31T13:11:50.949Z,6.17
2017-08-31T13:14:19.802Z,8.30
2017-08-31T13:16:47.991Z,11.00
2017-08-31T13:19:16.097Z,7.67
2017-08-31T13:21:44.228Z,5.63
2017-08-31T13:24:12.546Z,6.70
2017-08-31T13:26:40.883Z,3.73
2017-08-31T13:29:09.304Z,4.60
2017-08-31T13:31:37.383Z,5.40
2017-08-31T13:34:05.680Z,4.40
2017-08-31T13:36:33.790Z,5.43
2017-08-31T13:39:01.881Z,8.73
2017-08-31T13:41:30.004Z,11.00
2017-08-31T13:43:58.100Z,7.23
2017-08-31T13:46:26.201Z,4.70
2017-08-31T13:48:54.281Z,5.80
2017-08-31T13:51:22.541Z,6.60
2017-08-31T13:53:51.806Z,5.40
2017-08-31T13:56:20.156Z,5.67
2017-08-31T13:58:48.346Z,4.97
2017-08-31T14:01:16.696Z,6.73
2017-08-31T14:03:45.684Z,7.93
2017-08-31T14:06:15.899Z,6.07
2017-08-31T14:08:44.303Z,14.17
2017-08-31T14:11:12.927Z,6.57
2017-08-31T14:13:41.284Z,9.17
2017-08-31T14:16:09.662Z,12.60
2017-08-31T14:18:37.775Z,5.90
2017-08-31T14:21:06.719Z,8.10
2017-08-31T14:23:35.106Z,7.63
2017-08-31T14:26:03.187Z,7.20
2017-08-31T14:28:31.524Z,7.27
2017-08-31T14:30:59.708Z,7.73
2017-08-31T14:33:28.863Z,6.17
2017-08-31T14:35:56.962Z,6.27
2017-08-31T14:38:25.062Z,11.07
2017-08-31T14:40:55.733Z,7.50
2017-08-31T14:43:24.058Z,5.20
2017-08-31T14:45:53.114Z,6.63
2017-08-31T14:48:21.469Z,8.03
2017-08-31T14:50:49.871Z,9.67
2017-08-31T14:53:18.192Z,5.53
2017-08-31T14:55:46.560Z,6.00
2017-08-31T14:58:14.649Z,5.70
2017-08-31T15:00:43.044Z,7.13
2017-08-31T15:03:12.292Z,5.23
2017-08-31T15:05:41.330Z,5.53
2017-08-31T15:08:09.444Z,4.77
2017-08-31T15:10:37.867Z,6.33
2017-08-31T15:13:07.712Z,6.70
2017-08-31T15:15:36.519Z,7.50
2017-08-31T15:18:04.855Z,5.90
2017-08-31T15:20:33.994Z,9.00
2017-08-31T15:23:02.101Z,4.97
2017-08-31T15:25:30.460Z,5.93
2017-08-31T15:27:58.560Z,9.30
2017-08-31T15:30:26.652Z,9.47
2017-08-31T15:32:54.850Z,12.70
2017-08-31T15:35:24.751Z,12.53
2017-08-31T15:37:52.852Z,14.80
2017-08-31T15:40:21.114Z,16.03
2017-08-31T15:42:49.880Z,11.87
2017-08-31T15:45:19.844Z,11.40
2017-08-31T15:47:48.172Z,12.70
2017-08-31T15:50:16.270Z,8.83
2017-08-31T15:52:45.456Z,13.67
2017-08-31T15:55:13.798Z,17.70
2017-08-31T15:57:42.134Z,10.63
2017-08-31T16:00:10.443Z,9.73
2017-08-31T16:02:39.679Z,12.43
2017-08-31T16:05:07.780Z,10.37
2017-08-31T16:07:35.885Z,15.50
2017-08-31T16:10:04.732Z,11.77
2017-08-31T16:12:32.825Z,11.70
2017-08-31T16:15:01.440Z,17.33
2017-08-31T16:17:30.321Z,7.40
2017-08-31T16:19:59.299Z,13.07
2017-08-31T16:22:28.327Z,16.07
2017-08-31T16:24:56.605Z,8.03
2017-08-31T16:27:24.951Z,10.57
2017-08-31T16:29:53.035Z,8.97
2017-08-31T16:32:21.435Z,10.40
2017-08-31T16:34:49.652Z,6.90
2017-08-31T16:37:18.643Z,8.67
2017-08-31T16:39:47.664Z,11.17
2017-08-31T16:42:15.807Z,11.70
2017-08-31T16:44:43.923Z,10.87
2017-08-31T16:47:13.224Z,13.53
2017-08-31T16:49:42.113Z,12.20
2017-08-31T16:52:10.319Z,10.33
2017-08-31T16:54:38.507Z,9.47
2017-08-31T16:57:06.604Z,9.07
2017-08-31T16:59:34.887Z,8.40
2017-08-31T17:02:03.007Z,6.73
2017-08-31T17:04:31.088Z,10.73
2017-08-31T17:06:59.205Z,8.90
2017-08-31T17:09:28.109Z,9.63
2017-08-31T17:11:56.304Z,12.03
2017-08-31T17:14:24.436Z,10.03
2017-08-31T17:16:53.370Z,11.10
2017-08-31T17:19:21.521Z,14.37
2017-08-31T17:21:49.966Z,11.37
2017-08-31T17:24:18.877Z,13.83
2017-08-31T17:26:47.020Z,6.57
2017-08-31T17:29:15.859Z,7.80
2017-08-31T17:31:43.986Z,10.47
2017-08-31T17:34:13.108Z,12.60
2017-08-31T17:36:41.223Z,7.93
2017-08-31T17:39:09.328Z,6.90
2017-08-31T17:41:37.415Z,7.73
2017-08-31T17:44:06.951Z,11.67
2017-08-31T17:46:35.093Z,8.40
2017-08-31T17:49:04.087Z,8.67
2017-08-31T17:51:32.245Z,11.43
2017-08-31T17:54:00.332Z,8.47
2017-08-31T17:56:28.481Z,10.80
2017-08-31T17:58:56.592Z,8.17
2017-08-31T18:01:24.703Z,8.30
2017-08-31T18:03:53.644Z,9.13
2017-08-31T18:06:21.727Z,9.80
2017-08-31T18:08:49.885Z,8.43
2017-08-31T18:11:18.184Z,24.73
2017-08-31T18:13:46.334Z,6.43
2017-08-31T18:16:14.434Z,6.63
2017-08-31T18:18:43.456Z,9.80
2017-08-31T18:21:11.556Z,9.17
2017-08-31T18:23:39.664Z,10.40
2017-08-31T18:26:08.758Z,5.17
2017-08-31T18:28:36.918Z,8.40
2017-08-31T18:31:05.790Z,12.57
2017-08-31T18:33:35.603Z,9.70
2017-08-31T18:36:03.706Z,13.70
2017-08-31T18:38:31.815Z,6.17
2017-08-31T18:41:00.860Z,8.90
2017-08-31T18:43:28.935Z,8.20
2017-08-31T18:45:57.036Z,10.20
2017-08-31T18:48:25.131Z,6.03
2017-08-31T18:50:53.269Z,9.63
2017-08-31T18:53:21.349Z,8.70
2017-08-31T18:55:49.430Z,7.03
2017-08-31T18:58:17.559Z,13.10
2017-08-31T19:00:47.758Z,12.30
2017-08-31T19:03:15.836Z,7.83
2017-08-31T19:05:43.998Z,8.67
2017-08-31T19:08:12.114Z,6.47
2017-08-31T19:10:40.275Z,14.73
2017-08-31T19:13:08.361Z,8.40
2017-08-31T19:15:38.388Z,13.00
2017-08-31T19:18:06.511Z,5.97
2017-08-31T19:20:34.620Z,14.07
2017-08-31T19:23:04.664Z,5.83
2017-08-31T19:25:32.793Z,19.17
2017-08-31T19:28:00.909Z,11.10
2017-08-31T19:30:30.751Z,10.43
2017-08-31T19:32:58.838Z,7.90
2017-08-31T19:35:28.251Z,8.53
2017-08-31T19:37:56.351Z,9.90
2017-08-31T19:40:24.475Z,15.73
2017-08-31T19:42:53.501Z,13.57
2017-08-31T19:45:22.478Z,15.77
2017-08-31T19:47:50.587Z,7.83
2017-08-31T19:50:18.771Z,12.80
2017-08-31T19:52:46.869Z,10.33
2017-08-31T19:55:15.904Z,8.90
2017-08-31T19:57:44.031Z,8.23
2017-08-31T20:00:13.055Z,9.47
2017-08-31T20:02:41.447Z,8.23
2017-08-31T20:05:09.584Z,9.20
2017-08-31T20:07:38.515Z,11.50
2017-08-31T20:10:07.484Z,8.43
2017-08-31T20:12:36.487Z,12.13
2017-08-31T20:15:05.508Z,9.50
2017-08-31T20:17:33.911Z,15.67
2017-08-31T20:20:02.041Z,9.27
2017-08-31T20:22:32.064Z,10.27
2017-08-31T20:25:00.611Z,7.20
2017-08-31T20:27:28.752Z,13.80
2017-08-31T20:29:58.071Z,12.47
2017-08-31T20:32:26.269Z,8.63
2017-08-31T20:34:54.374Z,6.77
2017-08-31T20:37:24.807Z,9.83
2017-08-31T20:39:53.171Z,9.80
2017-08-31T20:42:22.952Z,9.30
2017-08-31T20:44:51.075Z,8.37
2017-08-31T20:47:20.473Z,9.50
2017-08-31T20:49:48.603Z,9.23
2017-08-31T20:52:16.701Z,9.70
2017-08-31T20:54:46.188Z,9.13
2017-08-31T20:57:16.141Z,8.10
2017-08-31T20:59:44.282Z,17.27
2017-08-31T21:02:12.402Z,9.60
2017-08-31T21:04:40.792Z,13.80
2017-08-31T21:07:09.890Z,12.37
2017-08-31T21:09:37.981Z,9.70
2017-08-31T21:12:06.097Z,10.17
2017-08-31T21:14:35.740Z,8.17
2017-08-31T21:17:03.963Z,8.07
2017-08-31T21:19:32.123Z,9.77
2017-08-31T21:22:01.188Z,8.30
2017-08-31T21:24:29.484Z,9.13
2017-08-31T21:26:58.750Z,12.50
2017-08-31T21:29:27.095Z,11.67
2017-08-31T21:31:55.372Z,9.30
2017-08-31T21:34:24.361Z,9.60
2017-08-31T21:36:53.289Z,12.90
2017-08-31T21:39:21.437Z,13.43
2017-08-31T21:41:49.535Z,11.27
2017-08-31T21:44:17.729Z,11.43
2017-08-31T21:46:45.853Z,9.73
2017-08-31T21:49:14.908Z,12.57
2017-08-31T21:51:43.066Z,10.33
2017-08-31T21:54:13.091Z,8.90
2017-08-31T21:56:42.197Z,7.20
2017-08-31T21:59:11.155Z,12.00
2017-08-31T22:01:39.497Z,13.93
2017-08-31T22:04:08.493Z,10.17
2017-08-31T22:06:36.658Z,7.30
2017-08-31T22:09:04.788Z,14.73
2017-08-31T22:11:32.940Z,14.10
2017-08-31T22:14:01.080Z,14.30
2017-08-31T22:16:30.953Z,10.53
2017-08-31T22:19:01.630Z,8.37
2017-08-31T22:21:30.839Z,17.80
2017-08-31T22:23:59.083Z,11.10
2017-08-31T22:26:27.971Z,10.47
2017-08-31T22:28:56.097Z,10.90
2017-08-31T22:31:25.222Z,10.50
2017-08-31T22:33:54.244Z,12.73
2017-08-31T22:36:22.412Z,11.47
2017-08-31T22:38:51.432Z,10.40
2017-08-31T22:41:20.467Z,12.10
2017-08-31T22:43:49.475Z,10.00
2017-08-31T22:46:17.595Z,12.23
2017-08-31T22:48:45.669Z,10.47
2017-08-31T22:51:14.602Z,16.27
2017-08-31T22:53:44.554Z,16.03
2017-08-31T22:56:12.695Z,17.00
2017-08-31T22:58:45.595Z,15.67
2017-08-31T23:01:13.783Z,16.13
2017-08-31T23:03:41.925Z,8.97
2017-08-31T23:06:10.188Z,12.20
2017-08-31T23:08:39.180Z,9.67
2017-08-31T23:11:08.217Z,10.90
2017-08-31T23:13:36.335Z,12.57
2017-08-31T23:16:04.450Z,14.03
2017-08-31T23:18:32.550Z,11.40
2017-08-31T23:21:00.662Z,12.73
2017-08-31T23:23:29.685Z,12.70
2017-08-31T23:25:58.635Z,12.70
2017-08-31T23:28:27.679Z,13.40
2017-08-31T23:30:56.688Z,12.73
2017-08-31T23:33:26.672Z,14.80
2017-08-31T23:35:54.817Z,12.83
2017-08-31T23:38:24.548Z,8.63
2017-08-31T23:40:52.656Z,13.60
2017-08-31T23:43:22.560Z,14.50
2017-08-31T23:45:51.500Z,11.77
2017-08-31T23:48:19.607Z,14.27
2017-08-31T23:50:49.704Z,14.40
2017-08-31T23:53:17.919Z,16.07
2017-08-31T23:55:46.099Z,12.50
2017-08-31T23:58:14.949Z,21.27
